createdAt,value
2018-02-23T12:59:28.689Z,13.30
2018-02-23T13:00:28.673Z,11.20
2018-02-23T13:01:28.676Z,11.80
2018-02-23T13:02:28.653Z,12.00
2018-02-23T13:03:28.658Z,10.20
2018-02-23T13:04:28.648Z,11.80
2018-02-23T13:05:28.638Z,11.50
2018-02-23T13:06:28.626Z,12.00
2018-02-23T13:07:28.775Z,12.40
2018-02-23T13:08:28.669Z,12.00
2018-02-23T13:09:28.627Z,12.60
2018-02-23T13:10:29.384Z,11.70
2018-02-23T13:11:28.644Z,11.60
2018-02-23T13:12:28.624Z,11.10
2018-02-23T13:13:28.703Z,11.40
2018-02-23T13:14:28.681Z,10.90
2018-02-23T13:15:28.654Z,11.30
2018-02-23T13:16:28.638Z,12.60
2018-02-23T13:17:28.623Z,11.20
2018-02-23T13:18:28.613Z,11.30
2018-02-23T13:19:28.609Z,11.40
2018-02-23T13:20:28.604Z,11.30
2018-02-23T13:21:28.616Z,11.00
2018-02-23T13:22:28.614Z,12.60
2018-02-23T13:23:28.770Z,11.60
2018-02-23T13:24:28.628Z,11.00
2018-02-23T13:25:28.635Z,11.80
2018-02-23T13:26:28.596Z,11.20
2018-02-23T13:27:28.621Z,11.20
2018-02-23T13:28:28.641Z,10.90
2018-02-23T13:29:28.606Z,11.20
2018-02-23T13:30:28.613Z,11.80
2018-02-23T13:31:28.600Z,12.40
2018-02-23T13:32:28.616Z,11.30
2018-02-23T13:33:28.653Z,10.50
2018-02-23T13:34:28.619Z,10.30
2018-02-23T13:35:28.576Z,10.70
2018-02-23T13:36:29.391Z,10.50
2018-02-23T13:37:28.618Z,10.40
2018-02-23T13:38:28.600Z,11.90
2018-02-23T13:39:28.608Z,10.90
2018-02-23T13:40:28.586Z,10.30
2018-02-23T13:41:28.644Z,10.40
2018-02-23T13:42:28.576Z,11.00
2018-02-23T13:43:28.572Z,10.90
2018-02-23T13:44:29.390Z,10.20
2018-02-23T13:45:28.581Z,10.10
2018-02-23T13:46:28.608Z,11.30
2018-02-23T13:47:28.600Z,9.70
2018-02-23T13:48:28.645Z,10.60
2018-02-23T13:49:28.585Z,10.80
2018-02-23T13:50:28.580Z,10.70
2018-02-23T13:51:28.618Z,10.00
2018-02-23T13:52:28.574Z,10.50
2018-02-23T13:53:28.559Z,10.50
2018-02-23T13:54:29.394Z,10.30
2018-02-23T13:55:28.559Z,9.50
2018-02-23T13:56:28.559Z,10.80
2018-02-23T13:57:28.582Z,10.50
2018-02-23T13:58:28.544Z,9.10
2018-02-23T13:59:28.553Z,9.80
2018-02-23T14:00:42.027Z,9.10
2018-02-23T14:01:41.689Z,10.60
2018-02-23T14:02:41.684Z,10.30
2018-02-23T14:03:41.670Z,10.40
2018-02-23T14:04:41.671Z,9.70
2018-02-23T14:05:41.694Z,10.20
2018-02-23T14:06:41.691Z,10.10
2018-02-23T14:07:41.671Z,10.30
2018-02-23T14:08:41.695Z,9.50
2018-02-23T14:09:41.658Z,9.90
2018-02-23T14:10:41.707Z,9.80
2018-02-23T14:11:41.694Z,9.80
2018-02-23T14:12:41.756Z,10.40
2018-02-23T14:13:41.660Z,10.40
2018-02-23T14:14:41.650Z,10.20
2018-02-23T14:15:41.662Z,10.20
2018-02-23T14:16:41.669Z,11.00
2018-02-23T14:17:41.678Z,9.80
2018-02-23T14:18:41.653Z,10.20
2018-02-23T14:19:41.659Z,10.20
2018-02-23T14:20:41.686Z,11.30
2018-02-23T14:21:41.646Z,10.60
2018-02-23T14:22:41.639Z,10.20
2018-02-23T14:23:41.641Z,10.20
2018-02-23T14:24:41.640Z,9.50
2018-02-23T14:25:41.630Z,10.00
2018-02-23T14:26:41.658Z,10.10
2018-02-23T14:27:41.640Z,10.30
2018-02-23T14:28:41.635Z,10.30
2018-02-23T14:29:41.663Z,11.10
2018-02-23T14:30:41.610Z,10.30
2018-02-23T14:31:41.627Z,9.10
2018-02-23T14:32:41.612Z,10.30
2018-02-23T14:33:41.622Z,9.60
2018-02-23T14:34:41.627Z,10.30
2018-02-23T14:35:41.618Z,8.80
2018-02-23T14:36:41.620Z,10.40
2018-02-23T14:37:41.619Z,9.80
2018-02-23T14:38:41.609Z,10.10
2018-02-23T14:39:41.601Z,9.90
2018-02-23T14:40:41.597Z,9.00
2018-02-23T14:41:41.596Z,9.90
2018-02-23T14:42:41.604Z,8.80
2018-02-23T14:43:42.158Z,9.00
2018-02-23T14:44:41.629Z,10.00
2018-02-23T14:45:41.590Z,10.70
2018-02-23T14:46:42.157Z,9.90
2018-02-23T14:47:41.588Z,9.60
2018-02-23T14:48:41.581Z,9.90
2018-02-23T14:49:41.584Z,9.40
2018-02-23T14:50:41.578Z,9.80
2018-02-23T14:51:41.570Z,10.20
2018-02-23T14:52:41.604Z,10.30
2018-02-23T14:53:42.159Z,10.00
2018-02-23T14:54:41.582Z,10.20
2018-02-23T14:55:41.737Z,10.30
2018-02-23T14:56:41.702Z,10.00
2018-02-23T14:57:42.034Z,9.20
2018-02-23T14:58:41.636Z,9.50
2018-02-23T14:59:41.749Z,10.60
2018-02-23T15:00:42.021Z,10.20
2018-02-23T15:01:41.554Z,9.70
2018-02-23T15:02:41.579Z,9.40
2018-02-23T15:03:41.567Z,9.80
2018-02-23T15:04:41.589Z,10.20
2018-02-23T15:05:41.574Z,10.10
2018-02-23T15:06:41.691Z,10.10
2018-02-23T15:07:41.544Z,9.60
2018-02-23T15:08:41.547Z,10.10
2018-02-23T15:09:41.622Z,9.10
2018-02-23T15:10:41.551Z,9.70
2018-02-23T15:11:41.576Z,10.00
2018-02-23T15:12:41.526Z,10.80
2018-02-23T15:13:41.523Z,10.20
2018-02-23T15:14:41.569Z,9.80
2018-02-23T15:15:41.524Z,10.50
2018-02-23T15:16:41.541Z,10.40
2018-02-23T15:17:41.537Z,11.50
2018-02-23T15:18:41.518Z,10.70
2018-02-23T15:19:41.521Z,10.00
2018-02-23T15:20:42.167Z,10.00
2018-02-23T15:21:41.575Z,10.10
2018-02-23T15:22:42.164Z,10.20
2018-02-23T15:23:41.506Z,10.00
2018-02-23T15:24:41.537Z,10.20
2018-02-23T15:25:41.525Z,9.30
2018-02-23T15:26:41.541Z,10.30
2018-02-23T15:27:41.502Z,10.40
2018-02-23T15:28:41.508Z,10.00
2018-02-23T15:29:41.533Z,10.40
2018-02-23T15:30:41.489Z,11.20
2018-02-23T15:31:41.490Z,10.20
2018-02-23T15:32:41.493Z,10.40
2018-02-23T15:33:41.616Z,10.50
2018-02-23T15:34:41.482Z,10.80
2018-02-23T15:35:41.489Z,8.80
2018-02-23T15:36:41.467Z,10.10
2018-02-23T15:37:41.469Z,10.40
2018-02-23T15:38:42.167Z,9.00
2018-02-23T15:39:41.486Z,10.80
2018-02-23T15:40:41.457Z,10.90
2018-02-23T15:41:41.455Z,10.20
2018-02-23T15:42:41.468Z,11.20
2018-02-23T15:43:41.465Z,9.40
2018-02-23T15:44:41.450Z,10.00
2018-02-23T15:45:41.478Z,10.00
2018-02-23T15:46:41.450Z,9.70
2018-02-23T15:47:41.480Z,9.20
2018-02-23T15:48:41.466Z,10.50
2018-02-23T15:49:41.476Z,10.40
2018-02-23T15:50:41.455Z,11.00
2018-02-23T15:51:41.441Z,11.30
2018-02-23T15:52:41.433Z,10.80
2018-02-23T15:53:41.436Z,11.00
2018-02-23T15:54:41.432Z,11.70
2018-02-23T15:55:41.432Z,10.40
2018-02-23T15:56:42.175Z,11.00
2018-02-23T15:57:41.426Z,11.00
2018-02-23T15:58:41.420Z,10.30
2018-02-23T15:59:41.431Z,11.00
2018-02-23T16:00:41.412Z,10.70
2018-02-23T16:01:41.423Z,10.00
2018-02-23T16:02:41.437Z,10.40
2018-02-23T16:03:41.426Z,10.40
2018-02-23T16:04:41.439Z,11.10
2018-02-23T16:05:41.400Z,10.70
2018-02-23T16:06:41.405Z,9.40
2018-02-23T16:07:41.411Z,11.60
2018-02-23T16:08:41.402Z,10.50
2018-02-23T16:09:41.392Z,10.60
2018-02-23T16:10:41.412Z,11.30
2018-02-23T16:11:41.592Z,12.00
2018-02-23T16:12:41.402Z,11.80
2018-02-23T16:13:41.395Z,11.30
2018-02-23T16:14:41.383Z,11.40
2018-02-23T16:15:41.378Z,12.20
2018-02-23T16:16:41.366Z,12.50
2018-02-23T16:17:41.376Z,12.00
2018-02-23T16:18:41.385Z,11.40
2018-02-23T16:19:41.358Z,12.20
2018-02-23T16:20:41.372Z,11.40
2018-02-23T16:21:41.361Z,11.40
2018-02-23T16:22:41.353Z,12.00
2018-02-23T16:23:41.384Z,13.00
2018-02-23T16:24:41.356Z,13.70
2018-02-23T16:25:41.347Z,12.90
2018-02-23T16:26:41.346Z,12.80
2018-02-23T16:27:41.346Z,12.30
2018-02-23T16:28:41.376Z,12.10
2018-02-23T16:29:41.333Z,12.80
2018-02-23T16:30:41.339Z,12.00
2018-02-23T16:31:41.339Z,12.40
2018-02-23T16:32:41.322Z,13.50
2018-02-23T16:33:41.346Z,12.40
2018-02-23T16:34:41.324Z,13.50
2018-02-23T16:35:41.323Z,12.60
2018-02-23T16:36:41.343Z,13.10
2018-02-23T16:37:42.176Z,13.40
2018-02-23T16:38:41.317Z,13.40
2018-02-23T16:39:41.310Z,11.80
2018-02-23T16:40:41.302Z,12.80
2018-02-23T16:41:41.324Z,13.40
2018-02-23T16:42:41.308Z,12.80
2018-02-23T16:43:41.303Z,12.80
2018-02-23T16:44:41.314Z,14.10
2018-02-23T16:45:41.299Z,14.30
2018-02-23T16:46:41.292Z,14.50
2018-02-23T16:47:41.346Z,14.70
2018-02-23T16:48:41.328Z,13.40
2018-02-23T16:49:41.332Z,14.70
2018-02-23T16:50:41.289Z,14.80
2018-02-23T16:51:41.265Z,15.30
2018-02-23T16:52:41.266Z,14.10
2018-02-23T16:53:41.284Z,14.70
2018-02-23T16:54:41.273Z,14.70
2018-02-23T16:55:41.262Z,15.50
2018-02-23T16:56:41.256Z,13.60
2018-02-23T16:57:41.261Z,14.90
2018-02-23T16:58:41.267Z,15.00
2018-02-23T16:59:41.255Z,13.10
2018-02-23T17:00:41.242Z,15.20
2018-02-23T17:01:41.243Z,14.60
2018-02-23T17:02:41.250Z,14.30
2018-02-23T17:03:41.264Z,16.10
2018-02-23T17:04:41.225Z,15.50
2018-02-23T17:05:41.239Z,16.50
2018-02-23T17:06:41.229Z,15.10
2018-02-23T17:07:41.325Z,16.00
2018-02-23T17:08:41.252Z,16.20
2018-02-23T17:09:41.450Z,16.00
2018-02-23T17:10:41.232Z,16.30
2018-02-23T17:11:41.210Z,16.30
2018-02-23T17:12:41.208Z,16.50
2018-02-23T17:13:41.216Z,16.00
2018-02-23T17:14:41.206Z,17.70
2018-02-23T17:15:41.195Z,16.00
2018-02-23T17:16:41.202Z,15.80
2018-02-23T17:17:41.185Z,15.40
2018-02-23T17:18:41.189Z,15.30
2018-02-23T17:19:41.181Z,17.20
2018-02-23T17:20:41.188Z,16.10
2018-02-23T17:21:41.186Z,15.90
2018-02-23T17:22:41.164Z,17.10
2018-02-23T17:23:41.175Z,16.50
2018-02-23T17:24:41.166Z,17.20
2018-02-23T17:25:41.166Z,17.30
2018-02-23T17:26:41.175Z,16.70
2018-02-23T17:27:41.174Z,20.50
2018-02-23T17:28:41.189Z,17.10
2018-02-23T17:29:41.141Z,17.00
2018-02-23T17:30:41.188Z,16.50
2018-02-23T17:31:41.149Z,17.60
2018-02-23T17:32:41.133Z,16.90
2018-02-23T17:33:41.194Z,17.00
2018-02-23T17:34:41.142Z,16.80
2018-02-23T17:35:41.165Z,17.10
2018-02-23T17:36:41.127Z,16.90
2018-02-23T17:37:41.141Z,16.80
2018-02-23T17:38:41.119Z,16.50
2018-02-23T17:39:41.120Z,18.90
2018-02-23T17:40:41.109Z,19.40
2018-02-23T17:41:41.114Z,18.50
2018-02-23T17:42:41.109Z,18.20
2018-02-23T17:43:41.108Z,18.40
2018-02-23T17:44:41.100Z,17.80
2018-02-23T17:45:41.094Z,17.70
2018-02-23T17:46:41.196Z,18.90
2018-02-23T17:47:41.103Z,18.80
2018-02-23T17:48:41.095Z,17.90
2018-02-23T17:49:41.101Z,19.10
2018-02-23T17:50:41.082Z,17.30
2018-02-23T17:51:41.089Z,19.10
2018-02-23T17:52:41.066Z,19.30
2018-02-23T17:53:41.079Z,19.90
2018-02-23T17:54:41.085Z,18.90
2018-02-23T17:55:41.061Z,19.40
2018-02-23T17:56:41.050Z,20.40
2018-02-23T17:57:41.075Z,20.70
2018-02-23T17:58:41.077Z,20.20
2018-02-23T17:59:41.044Z,19.50
2018-02-23T18:00:41.067Z,20.20
2018-02-23T18:01:41.055Z,21.20
2018-02-23T18:02:41.035Z,20.30
2018-02-23T18:03:41.033Z,19.20
2018-02-23T18:04:41.035Z,20.20
2018-02-23T18:05:41.026Z,21.00
2018-02-23T18:06:41.015Z,19.40
2018-02-23T18:07:41.678Z,19.90
2018-02-23T18:08:41.021Z,19.90
2018-02-23T18:09:41.038Z,20.00
2018-02-23T18:10:41.035Z,18.90
2018-02-23T18:11:41.007Z,19.40
2018-02-23T18:12:41.026Z,21.00
2018-02-23T18:13:41.074Z,20.60
2018-02-23T18:14:40.992Z,20.30
2018-02-23T18:15:40.982Z,21.00
2018-02-23T18:16:41.015Z,18.90
2018-02-23T18:17:40.992Z,21.30
2018-02-23T18:18:40.973Z,20.20
2018-02-23T18:19:41.004Z,20.80
2018-02-23T18:20:40.989Z,19.50
2018-02-23T18:21:40.996Z,21.20
2018-02-23T18:22:40.966Z,20.70
2018-02-23T18:23:40.959Z,20.90
2018-02-23T18:24:40.955Z,20.90
2018-02-23T18:25:40.980Z,22.50
2018-02-23T18:26:40.966Z,21.00
2018-02-23T18:27:40.955Z,19.80
2018-02-23T18:28:40.942Z,20.80
2018-02-23T18:29:40.939Z,20.70
2018-02-23T18:30:41.064Z,20.90
2018-02-23T18:31:40.931Z,20.50
2018-02-23T18:32:40.940Z,21.80
2018-02-23T18:33:41.680Z,21.30
2018-02-23T18:34:41.132Z,21.70
2018-02-23T18:35:40.922Z,22.70
2018-02-23T18:36:40.923Z,22.30
2018-02-23T18:37:40.925Z,21.70
2018-02-23T18:38:40.912Z,21.10
2018-02-23T18:39:40.982Z,23.10
2018-02-23T18:40:40.910Z,21.30
2018-02-23T18:41:40.974Z,22.40
2018-02-23T18:42:40.896Z,20.90
2018-02-23T18:43:40.890Z,19.80
2018-02-23T18:44:40.880Z,22.40
2018-02-23T18:45:41.032Z,22.30
2018-02-23T18:46:40.886Z,22.30
2018-02-23T18:47:40.878Z,22.40
2018-02-23T18:48:40.912Z,21.00
2018-02-23T18:49:40.921Z,21.70
2018-02-23T18:50:40.950Z,21.20
2018-02-23T18:51:40.854Z,23.70
2018-02-23T18:52:40.858Z,23.10
2018-02-23T18:53:40.904Z,22.70
2018-02-23T18:54:40.922Z,22.50
2018-02-23T18:55:40.920Z,23.20
2018-02-23T18:56:41.687Z,22.10
2018-02-23T18:57:40.831Z,22.40
2018-02-23T18:58:40.836Z,23.00
2018-02-23T18:59:41.133Z,22.60
2018-02-23T19:00:40.821Z,23.20
2018-02-23T19:01:40.964Z,22.60
2018-02-23T19:02:40.882Z,23.40
2018-02-23T19:03:40.810Z,22.20
2018-02-23T19:04:40.995Z,23.50
2018-02-23T19:05:40.813Z,21.50
2018-02-23T19:06:41.078Z,20.80
2018-02-23T19:07:41.682Z,23.00
2018-02-23T19:08:40.791Z,22.10
2018-02-23T19:09:40.835Z,21.40
2018-02-23T19:10:40.859Z,22.70
2018-02-23T19:11:41.685Z,22.50
2018-02-23T19:12:40.926Z,23.20
2018-02-23T19:13:40.920Z,24.50
2018-02-23T19:14:40.814Z,23.00
2018-02-23T19:15:40.891Z,22.40
2018-02-23T19:16:40.849Z,23.50
2018-02-23T19:17:40.772Z,21.40
2018-02-23T19:18:40.808Z,23.00
2018-02-23T19:19:40.824Z,20.40
2018-02-23T19:20:40.827Z,22.90
2018-02-23T19:21:40.765Z,19.80
2018-02-23T19:22:40.799Z,22.90
2018-02-23T19:23:40.745Z,19.00
2018-02-23T19:24:40.730Z,20.90
2018-02-23T19:25:40.757Z,20.40
2018-02-23T19:26:40.734Z,22.10
2018-02-23T19:27:40.722Z,22.40
2018-02-23T19:28:40.716Z,22.30
2018-02-23T19:29:40.736Z,19.70
2018-02-23T19:30:40.756Z,20.90
2018-02-23T19:31:40.719Z,20.60
2018-02-23T19:32:40.704Z,21.60
2018-02-23T19:33:41.187Z,22.10
2018-02-23T19:34:40.689Z,21.30
2018-02-23T19:35:40.696Z,22.70
2018-02-23T19:36:40.697Z,21.00
2018-02-23T19:37:40.677Z,21.40
2018-02-23T19:38:40.689Z,22.70
2018-02-23T19:39:40.672Z,20.80
2018-02-23T19:40:40.688Z,22.10
2018-02-23T19:41:40.688Z,22.80
2018-02-23T19:42:40.671Z,20.50
2018-02-23T19:43:40.703Z,22.90
2018-02-23T19:44:40.670Z,22.00
2018-02-23T19:45:40.727Z,20.90
2018-02-23T19:46:40.651Z,19.50
2018-02-23T19:47:40.664Z,19.00
2018-02-23T19:48:40.635Z,20.60
2018-02-23T19:49:40.636Z,19.70
2018-02-23T19:50:40.628Z,20.90
2018-02-23T19:51:40.666Z,20.80
2018-02-23T19:52:40.644Z,21.10
2018-02-23T19:53:40.724Z,19.40
2018-02-23T19:54:40.706Z,20.80
2018-02-23T19:55:40.683Z,21.80
2018-02-23T19:56:40.609Z,22.90
2018-02-23T19:57:40.612Z,20.60
2018-02-23T19:58:40.595Z,22.20
2018-02-23T19:59:40.604Z,20.90
2018-02-23T20:00:40.607Z,19.90
2018-02-23T20:01:40.602Z,20.50
2018-02-23T20:02:40.810Z,20.40
2018-02-23T20:03:40.578Z,21.00
2018-02-23T20:04:40.580Z,21.00
2018-02-23T20:05:40.569Z,20.30
2018-02-23T20:06:40.561Z,20.40
2018-02-23T20:07:40.560Z,21.10
2018-02-23T20:08:40.565Z,20.40
2018-02-23T20:09:40.573Z,20.40
2018-02-23T20:10:40.590Z,21.00
2018-02-23T20:11:40.545Z,21.40
2018-02-23T20:12:40.575Z,21.60
2018-02-23T20:13:40.553Z,20.30
2018-02-23T20:14:40.539Z,20.60
2018-02-23T20:15:40.531Z,21.50
2018-02-23T20:16:40.531Z,20.60
2018-02-23T20:17:40.530Z,20.70
2018-02-23T20:18:40.535Z,21.00
2018-02-23T20:19:40.546Z,20.60
2018-02-23T20:20:40.533Z,20.80
2018-02-23T20:21:40.513Z,20.10
2018-02-23T20:22:40.521Z,18.50
2018-02-23T20:23:40.516Z,19.20
2018-02-23T20:24:40.508Z,19.40
2018-02-23T20:25:40.516Z,20.40
2018-02-23T20:26:40.499Z,20.00
2018-02-23T20:27:40.527Z,19.20
2018-02-23T20:28:40.487Z,19.40
2018-02-23T20:29:40.493Z,19.40
2018-02-23T20:30:40.502Z,19.00
2018-02-23T20:31:40.462Z,19.90
2018-02-23T20:32:40.483Z,19.50
2018-02-23T20:33:40.475Z,19.90
2018-02-23T20:34:40.454Z,19.20
2018-02-23T20:35:40.469Z,20.10
2018-02-23T20:36:40.449Z,20.00
2018-02-23T20:37:40.474Z,19.80
2018-02-23T20:38:40.442Z,18.40
2018-02-23T20:39:40.456Z,18.30
2018-02-23T20:40:40.445Z,18.50
2018-02-23T20:41:41.189Z,19.60
2018-02-23T20:42:40.431Z,18.30
2018-02-23T20:43:40.425Z,18.80
2018-02-23T20:44:40.422Z,19.40
2018-02-23T20:45:40.410Z,18.20
2018-02-23T20:46:40.407Z,19.50
2018-02-23T20:47:40.413Z,18.30
2018-02-23T20:49:40.449Z,18.30
2018-02-23T20:50:40.444Z,18.50
2018-02-23T20:51:40.401Z,18.00
2018-02-23T20:52:40.377Z,18.10
2018-02-23T20:53:40.439Z,16.20
2018-02-23T20:54:40.480Z,17.20
2018-02-23T20:55:40.375Z,18.00
2018-02-23T20:56:40.379Z,17.40
2018-02-23T20:57:40.381Z,16.00
2018-02-23T20:58:40.352Z,16.50
2018-02-23T20:59:40.370Z,18.90
2018-02-23T21:00:40.360Z,18.30
2018-02-23T21:01:40.355Z,18.00
2018-02-23T21:02:40.370Z,17.30
2018-02-23T21:03:40.339Z,13.80
2018-02-23T21:04:40.325Z,17.70
2018-02-23T21:05:40.320Z,17.10
2018-02-23T21:06:40.328Z,15.40
2018-02-23T21:07:40.406Z,16.80
2018-02-23T21:08:40.325Z,18.70
2018-02-23T21:09:40.312Z,16.70
2018-02-23T21:10:40.322Z,16.90
2018-02-23T21:11:40.331Z,17.10
2018-02-23T21:12:40.295Z,16.70
2018-02-23T21:13:40.309Z,15.80
2018-02-23T21:14:40.286Z,15.40
2018-02-23T21:15:40.278Z,16.10
2018-02-23T21:16:40.277Z,14.40
2018-02-23T21:17:40.310Z,15.50
2018-02-23T21:18:40.276Z,16.50
2018-02-23T21:19:40.265Z,14.40
2018-02-23T21:20:40.282Z,17.20
2018-02-23T21:21:40.273Z,17.50
2018-02-23T21:22:40.251Z,16.00
2018-02-23T21:23:40.273Z,15.90
2018-02-23T21:24:40.270Z,17.30
2018-02-23T21:25:40.242Z,15.50
2018-02-23T21:26:40.237Z,16.90
2018-02-23T21:27:40.247Z,17.80
2018-02-23T21:28:40.221Z,16.70
2018-02-23T21:29:40.265Z,15.60
2018-02-23T21:30:40.308Z,16.90
2018-02-23T21:31:40.243Z,17.30
2018-02-23T21:32:40.201Z,17.30
2018-02-23T21:33:40.242Z,17.70
2018-02-23T21:34:40.199Z,17.00
2018-02-23T21:35:40.202Z,16.40
2018-02-23T21:36:40.193Z,17.20
2018-02-23T21:37:40.186Z,17.10
2018-02-23T21:38:40.191Z,17.30
2018-02-23T21:39:40.177Z,16.60
2018-02-23T21:40:40.173Z,16.40
2018-02-23T21:41:40.170Z,13.50
2018-02-23T21:42:40.167Z,15.90
2018-02-23T21:43:40.160Z,16.50
2018-02-23T21:44:40.181Z,16.50
2018-02-23T21:45:40.170Z,16.10
2018-02-23T21:46:40.159Z,15.70
2018-02-23T21:47:40.188Z,15.60
2018-02-23T21:48:40.152Z,16.40
2018-02-23T21:49:40.165Z,17.60
2018-02-23T21:50:40.130Z,16.30
2018-02-23T21:51:40.162Z,15.00
2018-02-23T21:52:40.137Z,17.30
2018-02-23T21:53:40.144Z,16.30
2018-02-23T21:54:40.117Z,15.00
2018-02-23T21:55:40.127Z,16.70
2018-02-23T21:56:40.163Z,17.20
2018-02-23T21:57:40.097Z,14.50
2018-02-23T21:58:40.094Z,14.90
2018-02-23T21:59:40.094Z,17.20
2018-02-23T22:00:40.091Z,16.40
2018-02-23T22:01:40.119Z,16.10
2018-02-23T22:02:40.081Z,17.00
2018-02-23T22:03:40.093Z,17.00
2018-02-23T22:04:40.718Z,16.20
2018-02-23T22:05:40.064Z,14.50
2018-02-23T22:06:40.059Z,16.30
2018-02-23T22:07:40.098Z,16.80
2018-02-23T22:08:40.055Z,16.80
2018-02-23T22:09:40.065Z,16.30
2018-02-23T22:10:40.054Z,16.10
2018-02-23T22:11:40.046Z,16.00
2018-02-23T22:12:40.040Z,15.80
2018-02-23T22:13:40.043Z,15.10
2018-02-23T22:14:40.014Z,16.80
2018-02-23T22:15:40.020Z,15.20
2018-02-23T22:16:40.014Z,15.80
2018-02-23T22:17:40.012Z,14.60
2018-02-23T22:18:40.014Z,16.30
2018-02-23T22:19:40.026Z,16.20
2018-02-23T22:20:40.026Z,16.60
2018-02-23T22:21:40.014Z,15.60
2018-02-23T22:22:39.992Z,15.10
2018-02-23T22:23:39.989Z,15.10
2018-02-23T22:24:40.006Z,16.30
2018-02-23T22:25:39.982Z,15.50
2018-02-23T22:26:39.966Z,15.00
2018-02-23T22:27:39.968Z,16.20
2018-02-23T22:28:39.955Z,16.00
2018-02-23T22:29:39.958Z,14.90
2018-02-23T22:30:39.961Z,15.50
2018-02-23T22:31:39.948Z,15.60
2018-02-23T22:32:39.970Z,17.00
2018-02-23T22:33:39.941Z,16.20
2018-02-23T22:34:39.946Z,16.80
2018-02-23T22:35:39.963Z,16.20
2018-02-23T22:36:39.917Z,15.60
2018-02-23T22:37:39.949Z,17.10
2018-02-23T22:38:39.909Z,16.50
2018-02-23T22:39:39.917Z,16.50
2018-02-23T22:40:39.902Z,17.00
2018-02-23T22:41:39.906Z,16.50
2018-02-23T22:42:39.908Z,16.40
2018-02-23T22:43:39.902Z,16.70
2018-02-23T22:44:39.883Z,16.00
2018-02-23T22:45:39.873Z,16.50
2018-02-23T22:46:39.877Z,16.80
2018-02-23T22:47:39.866Z,17.10
2018-02-23T22:48:39.869Z,16.70
2018-02-23T22:49:39.853Z,16.00
2018-02-23T22:50:39.875Z,16.50
2018-02-23T22:51:39.851Z,16.20
2018-02-23T22:52:39.851Z,16.50
2018-02-23T22:53:39.850Z,16.10
2018-02-23T22:54:39.850Z,16.60
2018-02-23T22:55:39.842Z,15.80
2018-02-23T22:56:39.826Z,16.50
2018-02-23T22:57:39.835Z,17.00
2018-02-23T22:58:39.818Z,17.30
2018-02-23T22:59:39.809Z,17.30
2018-02-23T23:00:58.025Z,15.20
2018-02-23T23:01:57.994Z,15.30
2018-02-23T23:02:57.996Z,17.60
2018-02-23T23:03:57.977Z,17.10
2018-02-23T23:04:57.986Z,16.40
2018-02-23T23:05:57.995Z,17.40
2018-02-23T23:06:57.972Z,17.20
2018-02-23T23:07:57.955Z,15.30
2018-02-23T23:08:57.948Z,17.80
2018-02-23T23:09:57.949Z,16.60
2018-02-23T23:10:57.950Z,17.50
2018-02-23T23:11:57.932Z,17.20
2018-02-23T23:12:57.940Z,16.10
2018-02-23T23:13:57.930Z,17.50
2018-02-23T23:14:57.931Z,16.60
2018-02-23T23:15:57.928Z,17.70
2018-02-23T23:16:57.918Z,17.60
2018-02-23T23:17:57.908Z,18.30
2018-02-23T23:18:58.461Z,17.70
2018-02-23T23:19:57.890Z,18.10
2018-02-23T23:20:57.902Z,15.60
2018-02-23T23:21:57.898Z,16.60
2018-02-23T23:22:57.883Z,16.60
2018-02-23T23:23:57.915Z,18.00
2018-02-23T23:24:57.893Z,18.40
2018-02-23T23:25:57.869Z,17.90
2018-02-23T23:26:57.868Z,18.40
2018-02-23T23:27:57.858Z,17.90
2018-02-23T23:28:57.851Z,17.90
2018-02-23T23:29:57.859Z,17.60
2018-02-23T23:30:57.854Z,18.40
2018-02-23T23:31:57.923Z,18.70
2018-02-23T23:32:57.835Z,18.50
2018-02-23T23:33:57.843Z,17.90
2018-02-23T23:34:57.866Z,15.40
2018-02-23T23:35:57.839Z,17.40
2018-02-23T23:36:57.813Z,19.00
2018-02-23T23:37:57.846Z,18.40
2018-02-23T23:38:57.808Z,16.70
2018-02-23T23:39:57.803Z,18.00
2018-02-23T23:40:57.797Z,18.10
2018-02-23T23:41:57.860Z,18.90
2018-02-23T23:42:57.786Z,18.20
2018-02-23T23:43:57.796Z,17.90
2018-02-23T23:44:58.457Z,16.50
2018-02-23T23:45:57.785Z,18.60
2018-02-23T23:46:57.765Z,17.90
2018-02-23T23:47:57.786Z,19.70
2018-02-23T23:48:57.779Z,18.50
2018-02-23T23:49:57.753Z,19.00
2018-02-23T23:50:57.750Z,18.90
2018-02-23T23:51:57.748Z,17.80
2018-02-23T23:52:57.745Z,18.70
2018-02-23T23:53:57.731Z,17.50
2018-02-23T23:54:57.746Z,16.90
2018-02-23T23:55:57.731Z,18.20
2018-02-23T23:56:57.740Z,19.20
2018-02-23T23:57:57.722Z,18.70
2018-02-23T23:58:57.716Z,18.00
2018-02-23T23:59:57.709Z,20.20
